Time;durP1;ratioP1;P1;durP2;ratioP2;P2;SDS_P1;SDS_P2;PMS_P1;PMS_P2;Temp;Humidity;BMP_temperature;BMP_pressure;BME280_temperature;BME280_humidity;BME280_pressure;Samples;Min_cycle;Max_cycle;Signal;HPM_P1;HPM_P2
2021/07/08 00:01:06;;;;;;;9.73;5.22;;;25.00;68.60;;;;;;5057033;28;20070;-46
2021/07/08 00:03:31;;;;;;;5.90;4.95;;;25.10;68.60;;;;;;5056833;28;20049;-47
2021/07/08 00:05:57;;;;;;;8.52;5.10;;;25.00;68.60;;;;;;5057038;28;20468;-49
2021/07/08 00:08:23;;;;;;;11.82;5.03;;;25.00;68.40;;;;;;5057036;28;20025;-50
2021/07/08 00:10:52;;;;;;;11.57;5.10;;;25.00;68.60;;;;;;5057516;28;20294;-51
2021/07/08 00:13:21;;;;;;;8.20;5.27;;;25.00;68.50;;;;;;5056915;28;20448;-47
2021/07/08 00:15:47;;;;;;;7.05;5.30;;;25.00;68.60;;;;;;5057377;28;20036;-52
2021/07/08 00:18:14;;;;;;;7.85;4.43;;;25.00;68.60;;;;;;5056498;28;20033;-48
2021/07/08 00:20:42;;;;;;;7.00;5.05;;;25.00;68.60;;;;;;5057196;28;20032;-48
2021/07/08 00:23:08;;;;;;;7.78;4.97;;;25.00;68.80;;;;;;5056483;28;20456;-46
2021/07/08 00:25:34;;;;;;;7.65;5.55;;;25.00;68.80;;;;;;5055743;28;20025;-44
2021/07/08 00:28:00;;;;;;;8.18;5.40;;;25.00;68.90;;;;;;5056499;28;20116;-47
2021/07/08 00:30:26;;;;;;;8.05;5.53;;;25.00;69.10;;;;;;5057082;28;20125;-46
2021/07/08 00:32:53;;;;;;;9.45;5.90;;;24.90;69.00;;;;;;5056236;28;20115;-46
2021/07/08 00:35:18;;;;;;;6.80;4.97;;;24.90;69.00;;;;;;5055574;28;20029;-47
2021/07/08 00:37:44;;;;;;;7.75;5.47;;;24.90;69.00;;;;;;5055953;28;20036;-46
2021/07/08 00:40:13;;;;;;;12.93;5.53;;;24.90;69.10;;;;;;5056505;28;20043;-45
2021/07/08 00:42:39;;;;;;;10.50;5.35;;;24.90;69.30;;;;;;5056422;28;20033;-45
2021/07/08 00:45:11;;;;;;;7.63;5.25;;;24.90;69.30;;;;;;5038669;28;20040;-47
2021/07/08 00:47:37;;;;;;;6.28;5.13;;;24.90;69.30;;;;;;5055785;28;20044;-46
2021/07/08 00:50:07;;;;;;;6.25;5.43;;;24.90;69.30;;;;;;5056461;28;20025;-45
2021/07/08 00:52:33;;;;;;;8.00;5.38;;;24.80;69.20;;;;;;5056169;28;20029;-47
2021/07/08 00:54:59;;;;;;;8.23;6.03;;;24.80;69.30;;;;;;5056537;28;20412;-51
2021/07/08 00:57:25;;;;;;;10.77;6.18;;;24.80;69.50;;;;;;5055881;28;20042;-49
2021/07/08 00:59:54;;;;;;;7.20;5.30;;;24.80;69.40;;;;;;5056264;28;20067;-47
2021/07/08 01:02:21;;;;;;;9.82;4.75;;;24.80;69.40;;;;;;5056103;28;20037;-46
2021/07/08 01:04:48;;;;;;;6.55;5.30;;;24.80;69.40;;;;;;5056302;28;20320;-45
2021/07/08 01:07:20;;;;;;;9.73;5.43;;;24.70;69.40;;;;;;5055996;28;20063;-48
2021/07/08 01:09:46;;;;;;;8.57;5.60;;;24.70;69.60;;;;;;5055988;28;20071;-47
2021/07/08 01:12:12;;;;;;;10.00;5.93;;;24.70;69.70;;;;;;5055497;28;20033;-45
2021/07/08 01:14:38;;;;;;;8.20;5.65;;;24.70;69.70;;;;;;5056301;28;20445;-46
2021/07/08 01:17:06;;;;;;;7.60;5.40;;;24.70;69.80;;;;;;5054544;28;20033;-46
2021/07/08 01:19:34;;;;;;;11.98;5.72;;;24.70;69.80;;;;;;5055887;28;20028;-45
2021/07/08 01:22:01;;;;;;;7.43;5.53;;;24.60;69.90;;;;;;5055728;28;20029;-48
2021/07/08 01:24:27;;;;;;;10.55;5.88;;;24.60;70.00;;;;;;5055975;28;20029;-45
2021/07/08 01:26:54;;;;;;;8.32;5.55;;;24.60;70.10;;;;;;5055579;28;20336;-47
2021/07/08 01:29:20;;;;;;;9.07;6.03;;;24.60;70.30;;;;;;5056138;28;20029;-46
2021/07/08 01:31:46;;;;;;;11.75;6.15;;;24.60;70.30;;;;;;5055540;28;20033;-47
2021/07/08 01:34:11;;;;;;;7.20;5.35;;;24.60;70.40;;;;;;5055399;28;20178;-50
2021/07/08 01:36:37;;;;;;;10.73;6.35;;;24.50;70.40;;;;;;5055786;28;20057;-49
2021/07/08 01:39:04;;;;;;;8.07;5.85;;;24.50;70.50;;;;;;5055125;28;20033;-49
2021/07/08 01:41:30;;;;;;;10.32;6.25;;;24.40;70.50;;;;;;5055296;28;20060;-46
2021/07/08 01:43:56;;;;;;;9.25;5.93;;;24.50;70.50;;;;;;5055451;28;20025;-45
2021/07/08 01:46:22;;;;;;;9.15;5.88;;;24.40;70.50;;;;;;5055730;28;20380;-47
2021/07/08 01:48:50;;;;;;;6.50;5.80;;;24.40;70.60;;;;;;5054936;28;20029;-45
2021/07/08 01:51:21;;;;;;;8.48;5.90;;;24.40;70.60;;;;;;5055845;28;20025;-44
2021/07/08 01:53:47;;;;;;;8.25;6.10;;;24.40;70.60;;;;;;5054971;28;20055;-45
2021/07/08 01:56:13;;;;;;;10.23;6.00;;;24.30;70.60;;;;;;5055744;28;20405;-47
2021/07/08 01:58:39;;;;;;;7.55;5.90;;;24.40;70.90;;;;;;5054630;28;20082;-51
2021/07/08 02:01:05;;;;;;;9.73;5.28;;;24.30;70.80;;;;;;5055365;28;20033;-46
2021/07/08 02:03:31;;;;;;;9.48;5.95;;;24.30;70.70;;;;;;5055288;28;20033;-47
2021/07/08 02:05:56;;;;;;;9.18;5.68;;;24.30;71.40;;;;;;5055556;28;20051;-46
2021/07/08 02:08:22;;;;;;;8.68;5.60;;;24.30;70.90;;;;;;5055195;28;20108;-47
2021/07/08 02:10:48;;;;;;;9.18;5.85;;;24.30;71.00;;;;;;5055751;28;20402;-48
2021/07/08 02:13:13;;;;;;;8.00;5.80;;;24.30;70.90;;;;;;5055105;28;20297;-45
2021/07/08 02:15:39;;;;;;;8.38;6.22;;;24.30;71.10;;;;;;5055712;28;20047;-46
2021/07/08 02:18:05;;;;;;;7.93;5.38;;;24.30;71.00;;;;;;5054983;28;20306;-47
2021/07/08 02:20:32;;;;;;;8.98;5.80;;;24.30;71.00;;;;;;5055645;28;20028;-48
2021/07/08 02:22:58;;;;;;;9.80;5.85;;;24.30;71.00;;;;;;5054983;28;20041;-46
2021/07/08 02:25:23;;;;;;;6.35;5.75;;;24.30;71.20;;;;;;5055728;28;20048;-47
2021/07/08 02:27:50;;;;;;;6.57;5.90;;;24.30;71.20;;;;;;5054672;28;20041;-47
2021/07/08 02:30:21;;;;;;;9.13;5.68;;;24.30;71.20;;;;;;5055482;28;20075;-47
2021/07/08 02:32:50;;;;;;;8.85;5.90;;;24.30;71.30;;;;;;5054754;28;20052;-46
2021/07/08 02:35:16;;;;;;;9.85;5.82;;;24.30;71.30;;;;;;5055570;28;20021;-47
2021/07/08 02:37:42;;;;;;;9.13;6.10;;;24.30;71.40;;;;;;5054644;28;20318;-45
2021/07/08 02:40:17;;;;;;;7.82;5.90;;;24.30;71.50;;;;;;5055131;28;20128;-46
2021/07/08 02:42:52;;;;;;;7.68;5.93;;;24.30;71.50;;;;;;5054627;28;20445;-47
2021/07/08 02:45:23;;;;;;;8.48;5.93;;;24.30;71.60;;;;;;5055411;28;20279;-45
2021/07/08 02:47:49;;;;;;;8.02;5.53;;;24.30;71.80;;;;;;5055230;28;20158;-47
2021/07/08 02:50:16;;;;;;;6.88;5.70;;;24.30;71.80;;;;;;5058939;28;20104;-48
2021/07/08 02:52:43;;;;;;;8.35;5.90;;;24.30;71.90;;;;;;5058555;28;20037;-49
2021/07/08 02:55:10;;;;;;;8.90;6.05;;;24.30;72.10;;;;;;5059004;28;20107;-47
2021/07/08 02:57:35;;;;;;;7.55;6.78;;;24.30;72.00;;;;;;5058383;28;20436;-46
2021/07/08 03:00:01;;;;;;;9.60;6.15;;;24.30;72.10;;;;;;5057202;28;20056;-47
2021/07/08 03:02:27;;;;;;;7.75;5.63;;;24.30;72.10;;;;;;5058411;28;20033;-46
2021/07/08 03:04:53;;;;;;;8.52;5.88;;;24.30;72.10;;;;;;5058424;28;20039;-48
2021/07/08 03:07:18;;;;;;;7.68;5.75;;;24.30;72.20;;;;;;5058207;28;20033;-45
2021/07/08 03:09:44;;;;;;;7.05;5.63;;;24.30;72.20;;;;;;5058344;28;20028;-47
2021/07/08 03:12:10;;;;;;;8.30;6.00;;;24.30;72.30;;;;;;5058082;28;20060;-48
2021/07/08 03:14:35;;;;;;;11.73;6.65;;;24.30;72.20;;;;;;5058287;28;20425;-46
2021/07/08 03:17:01;;;;;;;8.82;5.80;;;24.30;71.90;;;;;;5057986;28;20068;-51
2021/07/08 03:19:27;;;;;;;10.10;5.93;;;24.40;71.80;;;;;;5057950;28;20052;-48
2021/07/08 03:21:53;;;;;;;7.18;5.60;;;24.40;71.90;;;;;;5058148;28;20373;-48
2021/07/08 03:24:19;;;;;;;9.88;5.85;;;24.40;71.90;;;;;;5058055;28;20287;-48
2021/07/08 03:26:44;;;;;;;9.65;6.05;;;24.40;71.80;;;;;;5056701;28;20041;-47
2021/07/08 03:29:10;;;;;;;8.23;6.40;;;24.40;71.90;;;;;;5057755;28;20100;-51
2021/07/08 03:31:36;;;;;;;11.60;6.32;;;24.50;71.70;;;;;;5058027;28;20029;-48
2021/07/08 03:34:01;;;;;;;7.60;5.65;;;24.50;71.40;;;;;;5057579;28;20433;-47
2021/07/08 03:36:27;;;;;;;7.78;6.25;;;24.50;71.20;;;;;;5058060;28;20040;-46
2021/07/08 03:38:53;;;;;;;7.70;5.65;;;24.60;71.10;;;;;;5057493;28;20025;-49
2021/07/08 03:41:18;;;;;;;9.70;6.35;;;24.60;71.00;;;;;;5057540;28;20178;-48
2021/07/08 03:43:45;;;;;;;9.38;5.97;;;24.60;70.90;;;;;;5057241;28;20041;-46
2021/07/08 03:46:11;;;;;;;7.78;6.20;;;24.60;70.90;;;;;;5057791;28;20088;-45
2021/07/08 03:48:37;;;;;;;9.88;6.03;;;24.70;70.80;;;;;;5056938;28;20410;-47
2021/07/08 03:51:02;;;;;;;6.95;5.93;;;24.70;70.80;;;;;;5057685;28;20074;-46
2021/07/08 03:53:28;;;;;;;10.27;5.22;;;24.70;70.90;;;;;;5057032;28;20370;-45
2021/07/08 03:55:54;;;;;;;8.18;5.38;;;24.80;71.00;;;;;;5057524;28;20107;-48
2021/07/08 03:58:20;;;;;;;8.13;5.70;;;24.80;71.00;;;;;;5056891;28;20021;-46
2021/07/08 04:00:45;;;;;;;7.85;5.90;;;24.80;70.70;;;;;;5057462;28;20029;-46
2021/07/08 04:03:16;;;;;;;12.25;5.13;;;24.90;71.00;;;;;;5056977;28;20041;-48
2021/07/08 04:05:42;;;;;;;;;;;24.90;70.80;;;;;;5057887;28;20262;-47
2021/07/08 04:08:08;;;;;;;9.95;5.68;;;25.00;71.20;;;;;;5056973;28;20051;-49
2021/07/08 04:10:36;;;;;;;8.95;4.97;;;25.00;70.10;;;;;;5056817;28;20032;-46
2021/07/08 04:13:08;;;;;;;11.90;5.50;;;25.00;69.20;;;;;;5056573;28;20087;-47
2021/07/08 04:15:34;;;;;;;11.77;4.68;;;25.10;68.50;;;;;;5055872;28;20021;-47
2021/07/08 04:18:00;;;;;;;12.40;9.25;;;25.10;68.10;;;;;;5056359;28;20077;-48
2021/07/08 04:20:26;;;;;;;8.00;6.50;;;25.20;68.30;;;;;;5056862;28;20037;-49
2021/07/08 04:22:52;;;;;;;11.25;5.70;;;25.20;68.40;;;;;;5056559;28;20048;-49
2021/07/08 04:25:18;;;;;;;5.60;5.00;;;25.30;68.50;;;;;;5056744;28;20454;-50
2021/07/08 04:27:45;;;;;;;7.88;5.22;;;25.30;68.10;;;;;;5056381;28;20044;-45
2021/07/08 04:30:13;;;;;;;5.70;4.60;;;25.40;67.70;;;;;;5056937;28;20275;-45
2021/07/08 04:32:40;;;;;;;6.90;4.53;;;25.40;67.60;;;;;;5055846;28;20040;-46
2021/07/08 04:35:07;;;;;;;7.05;4.60;;;25.40;66.50;;;;;;5056737;28;20104;-48
2021/07/08 04:37:40;;;;;;;7.20;5.10;;;25.50;65.60;;;;;;5055745;28;20108;-46
2021/07/08 04:40:08;;;;;;;6.88;4.72;;;25.50;65.60;;;;;;5056117;28;20057;-47
2021/07/08 04:42:34;;;;;;;7.80;5.07;;;25.60;65.10;;;;;;5055875;28;20125;-45
2021/07/08 04:45:00;;;;;;;6.00;4.63;;;25.60;64.90;;;;;;5056340;28;20108;-45
2021/07/08 04:47:25;;;;;;;8.77;4.80;;;25.70;64.40;;;;;;5055719;28;20033;-46
2021/07/08 04:49:51;;;;;;;9.55;4.95;;;25.70;64.10;;;;;;5056009;28;20040;-47
2021/07/08 04:52:17;;;;;;;13.50;7.70;;;25.80;64.30;;;;;;5055597;28;20075;-45
2021/07/08 04:54:42;;;;;;;11.02;5.80;;;25.80;64.40;;;;;;5056413;28;20052;-45
2021/07/08 04:57:08;;;;;;;6.78;4.88;;;25.80;64.30;;;;;;5055675;28;20064;-46
2021/07/08 04:59:33;;;;;;;5.38;4.65;;;25.90;64.40;;;;;;5056090;28;20064;-47
2021/07/08 05:01:59;;;;;;;5.60;4.50;;;25.90;64.20;;;;;;5055792;28;20063;-48
2021/07/08 05:04:25;;;;;;;8.82;4.55;;;25.90;64.30;;;;;;5056281;28;20032;-44
2021/07/08 05:06:50;;;;;;;12.80;5.93;;;26.00;64.20;;;;;;5058929;28;20077;-48
2021/07/08 05:09:16;;;;;;;6.80;4.82;;;26.10;64.10;;;;;;5075840;28;20412;-47
2021/07/08 05:11:42;;;;;;;11.38;4.95;;;26.10;64.20;;;;;;5070667;28;20040;-47
2021/07/08 05:14:08;;;;;;;5.15;4.38;;;26.10;63.80;;;;;;5054305;28;20635;-46
2021/07/08 05:16:34;;;;;;;8.77;4.50;;;26.20;63.70;;;;;;5054790;28;20123;-50
2021/07/08 05:19:00;;;;;;;9.30;4.43;;;26.20;63.30;;;;;;5055356;28;20025;-46
2021/07/08 05:21:25;;;;;;;11.13;4.72;;;26.30;63.30;;;;;;5055578;28;20044;-48
2021/07/08 05:23:53;;;;;;;6.90;4.60;;;26.30;63.30;;;;;;5055319;28;20025;-49
2021/07/08 05:26:19;;;;;;;6.60;4.82;;;26.30;63.30;;;;;;5055745;28;20044;-46
2021/07/08 05:28:44;;;;;;;7.53;4.88;;;26.40;63.30;;;;;;5054939;28;20029;-46
2021/07/08 05:31:10;;;;;;;7.75;5.07;;;26.40;62.30;;;;;;5056246;28;20108;-51
2021/07/08 05:33:36;;;;;;;10.43;5.07;;;26.40;62.10;;;;;;5054904;28;20036;-47
2021/07/08 05:36:01;;;;;;;7.53;4.40;;;26.50;62.00;;;;;;5055530;28;20036;-48
2021/07/08 05:38:27;;;;;;;6.75;4.72;;;26.50;61.70;;;;;;5055130;28;20025;-50
2021/07/08 05:40:52;;;;;;;7.93;4.40;;;26.60;61.50;;;;;;5055112;28;20084;-49
2021/07/08 05:43:18;;;;;;;4.65;4.13;;;26.60;61.00;;;;;;5054919;28;20114;-51
2021/07/08 05:45:44;;;;;;;6.82;4.22;;;26.60;60.40;;;;;;5055722;28;20309;-49
2021/07/08 05:48:09;;;;;;;10.00;4.30;;;26.60;60.40;;;;;;5054803;28;20029;-44
2021/07/08 05:50:35;;;;;;;7.47;3.78;;;26.70;60.20;;;;;;5055578;28;20029;-48
2021/07/08 05:53:01;;;;;;;5.70;3.80;;;26.70;60.10;;;;;;5054838;28;20033;-46
2021/07/08 05:55:26;;;;;;;5.18;3.67;;;26.80;59.90;;;;;;5055555;28;20029;-47
2021/07/08 05:57:52;;;;;;;13.23;3.95;;;26.80;59.90;;;;;;5054661;28;20067;-46
2021/07/08 06:00:20;;;;;;;5.95;4.00;;;26.90;60.00;;;;;;5055575;28;20032;-45
2021/07/08 06:02:46;;;;;;;5.38;3.70;;;26.90;59.90;;;;;;5054742;28;20310;-45
2021/07/08 06:05:13;;;;;;;6.22;4.97;;;26.90;60.10;;;;;;5054871;28;20048;-45
2021/07/08 06:07:38;;;;;;;8.68;4.32;;;27.00;60.40;;;;;;5055063;28;20028;-45
2021/07/08 06:10:07;;;;;;;6.88;4.35;;;27.00;60.40;;;;;;5055282;28;20405;-46
2021/07/08 06:12:32;;;;;;;7.88;4.10;;;27.00;60.40;;;;;;5054444;28;20025;-51
2021/07/08 06:14:58;;;;;;;9.27;5.85;;;27.00;60.60;;;;;;5055447;28;20025;-46
2021/07/08 06:17:24;;;;;;;13.55;7.63;;;27.10;60.60;;;;;;5054670;28;20271;-43
2021/07/08 06:19:49;;;;;;;7.82;4.50;;;27.10;60.40;;;;;;5054862;28;20044;-43
2021/07/08 06:22:15;;;;;;;5.20;4.25;;;27.10;59.90;;;;;;5054601;28;20033;-45
2021/07/08 06:24:43;;;;;;;9.20;5.20;;;27.20;60.10;;;;;;5058552;28;20029;-46
2021/07/08 06:27:08;;;;;;;7.60;4.10;;;27.20;60.20;;;;;;5058189;28;20033;-46
2021/07/08 06:29:34;;;;;;;7.75;5.18;;;27.20;60.10;;;;;;5058601;28;20037;-43
2021/07/08 06:32:00;;;;;;;14.63;4.75;;;27.20;60.00;;;;;;5058687;28;20025;-43
2021/07/08 06:34:26;;;;;;;5.88;4.35;;;27.30;59.70;;;;;;5058333;28;20362;-49
2021/07/08 06:36:51;;;;;;;7.68;5.05;;;27.30;59.50;;;;;;5058352;28;20036;-49
2021/07/08 06:39:17;;;;;;;7.43;4.20;;;27.30;59.70;;;;;;5058310;28;20409;-44
2021/07/08 06:41:43;;;;;;;4.68;3.63;;;27.40;59.90;;;;;;5058421;28;20053;-46
2021/07/08 06:44:08;;;;;;;7.25;3.65;;;27.40;59.90;;;;;;5058307;28;20033;-44
2021/07/08 06:46:34;;;;;;;5.22;3.20;;;27.40;59.40;;;;;;5058311;28;20103;-51
2021/07/08 06:49:01;;;;;;;7.78;3.75;;;27.50;58.90;;;;;;5057825;28;20064;-46
2021/07/08 06:51:27;;;;;;;12.48;3.78;;;27.50;58.60;;;;;;5058579;28;20026;-43
2021/07/08 06:53:55;;;;;;;7.38;3.70;;;27.50;58.40;;;;;;5058062;28;20305;-42
2021/07/08 06:56:21;;;;;;;19.77;6.00;;;27.60;57.90;;;;;;5058196;28;20319;-47
2021/07/08 06:58:46;;;;;;;7.47;3.90;;;27.60;58.10;;;;;;5057871;28;20078;-47
2021/07/08 07:01:12;;;;;;;6.10;3.30;;;27.60;57.50;;;;;;5058224;28;20037;-46
2021/07/08 07:03:38;;;;;;;5.35;3.40;;;27.70;56.90;;;;;;5057872;28;20036;-48
2021/07/08 07:06:04;;;;;;;4.90;3.80;;;27.70;56.50;;;;;;5057771;28;20190;-46
2021/07/08 07:08:30;;;;;;;8.70;3.20;;;27.70;56.40;;;;;;5056877;28;20108;-45
2021/07/08 07:10:56;;;;;;;6.68;3.20;;;27.70;55.90;;;;;;5057534;28;20032;-44
2021/07/08 07:13:22;;;;;;;4.13;3.20;;;27.80;55.10;;;;;;5057370;28;20480;-47
2021/07/08 07:15:48;;;;;;;9.20;4.70;;;27.80;55.20;;;;;;5058142;28;20108;-47
2021/07/08 07:18:14;;;;;;;4.88;3.38;;;27.90;55.70;;;;;;5057507;28;20421;-50
2021/07/08 07:20:40;;;;;;;5.82;4.40;;;27.90;55.10;;;;;;5058156;28;20032;-44
2021/07/08 07:23:06;;;;;;;10.20;4.43;;;27.90;55.30;;;;;;5057116;28;20061;-42
2021/07/08 07:25:34;;;;;;;8.07;4.75;;;27.90;54.10;;;;;;5057894;28;20065;-44
2021/07/08 07:27:59;;;;;;;36.25;18.60;;;27.90;54.00;;;;;;5057188;28;20063;-47
2021/07/08 07:30:26;;;;;;;9.77;7.00;;;28.00;54.10;;;;;;5058087;28;20052;-43
2021/07/08 07:32:53;;;;;;;9.13;5.18;;;28.00;54.50;;;;;;5057335;28;20037;-46
2021/07/08 07:35:20;;;;;;;11.52;4.20;;;28.10;54.40;;;;;;5057516;28;20025;-49
2021/07/08 07:37:46;;;;;;;9.32;4.18;;;28.10;54.70;;;;;;5057228;28;20154;-47
2021/07/08 07:40:12;;;;;;;10.25;7.05;;;28.10;54.20;;;;;;5057460;28;20068;-42
2021/07/08 07:42:38;;;;;;;8.93;6.55;;;28.20;53.80;;;;;;5057315;28;20406;-43
2021/07/08 07:45:06;;;;;;;12.48;6.97;;;28.20;52.10;;;;;;5057680;28;20128;-46
2021/07/08 07:47:32;;;;;;;4.57;3.65;;;28.20;52.00;;;;;;5057171;28;20033;-47
2021/07/08 07:49:59;;;;;;;8.10;3.58;;;28.20;52.00;;;;;;5057224;28;20079;-46
2021/07/08 07:52:25;;;;;;;7.07;4.60;;;28.30;53.00;;;;;;5056917;28;20329;-42
2021/07/08 07:54:51;;;;;;;3.97;3.28;;;28.30;52.80;;;;;;5057121;28;20302;-42
2021/07/08 07:57:17;;;;;;;10.88;7.60;;;28.30;52.90;;;;;;5057052;28;20263;-42
2021/07/08 07:59:43;;;;;;;6.72;3.95;;;28.40;52.60;;;;;;5056796;28;20108;-44
2021/07/08 08:02:18;;;;;;;7.50;4.32;;;28.40;52.40;;;;;;5071040;28;20492;-45
2021/07/08 08:10:27;;;;;;;8.65;5.03;;;28.50;52.10;;;;;;5057319;28;20028;-43
2021/07/08 08:12:53;;;;;;;9.48;3.03;;;28.50;51.60;;;;;;5056309;28;20036;-46
2021/07/08 08:15:19;;;;;;;10.40;7.38;;;28.50;50.10;;;;;;5057244;28;20052;-46
2021/07/08 08:17:46;;;;;;;11.25;3.72;;;28.50;49.80;;;;;;5056459;28;20313;-45
2021/07/08 08:20:12;;;;;;;11.90;3.40;;;28.60;49.20;;;;;;5056495;28;20079;-45
2021/07/08 08:22:40;;;;;;;4.78;2.90;;;28.70;48.20;;;;;;5056634;28;20379;-45
2021/07/08 08:25:06;;;;;;;5.75;3.65;;;28.70;47.20;;;;;;5056340;28;20056;-47
2021/07/08 08:27:32;;;;;;;7.97;3.80;;;28.70;47.50;;;;;;5055862;28;20570;-42
2021/07/08 08:29:57;;;;;;;7.20;3.00;;;28.80;47.20;;;;;;5056807;28;20029;-43
2021/07/08 08:32:23;;;;;;;6.28;3.88;;;28.90;46.90;;;;;;5056056;28;20116;-46
2021/07/08 08:34:48;;;;;;;5.45;2.83;;;29.00;48.30;;;;;;5056182;28;20021;-50
2021/07/08 08:37:14;;;;;;;2.97;2.58;;;29.00;48.30;;;;;;5056075;28;20059;-46
2021/07/08 08:39:40;;;;;;;6.95;3.25;;;29.00;48.30;;;;;;5056013;28;20065;-43
2021/07/08 08:42:09;;;;;;;6.72;3.28;;;29.00;48.70;;;;;;5055754;28;20049;-48
2021/07/08 08:44:36;;;;;;;3.03;2.40;;;29.00;47.70;;;;;;5056021;28;20029;-47
2021/07/08 08:47:02;;;;;;;4.03;2.80;;;29.00;46.70;;;;;;5055429;28;20060;-46
2021/07/08 08:49:27;;;;;;;8.90;3.85;;;29.00;46.30;;;;;;5056236;28;20114;-43
2021/07/08 08:51:53;;;;;;;5.63;3.58;;;29.00;46.50;;;;;;5055971;28;20037;-46
2021/07/08 08:54:19;;;;;;;9.30;3.53;;;29.00;45.70;;;;;;5056118;28;20048;-43
2021/07/08 08:56:45;;;;;;;9.50;3.80;;;29.10;45.10;;;;;;5056064;28;20316;-43
2021/07/08 08:59:11;;;;;;;2.92;2.40;;;29.10;44.30;;;;;;5064462;28;20058;-44
2021/07/08 09:01:37;;;;;;;6.82;4.97;;;29.20;44.10;;;;;;5075705;28;20028;-46
2021/07/08 09:04:02;;;;;;;10.00;7.20;;;29.20;43.70;;;;;;5074952;28;20039;-44
2021/07/08 09:06:36;;;;;;;9.00;6.78;;;29.30;43.90;;;;;;5075477;28;20032;-45
2021/07/08 09:09:09;;;;;;;5.85;4.70;;;29.30;43.10;;;;;;5074706;28;20036;-43
2021/07/08 09:11:35;;;;;;;12.65;10.52;;;29.40;42.80;;;;;;5075341;28;20413;-43
2021/07/08 09:14:05;;;;;;;4.85;3.75;;;29.40;43.60;;;;;;5075061;28;20317;-44
2021/07/08 09:16:42;;;;;;;9.63;6.28;;;29.50;42.00;;;;;;5074458;28;20108;-45
2021/07/08 09:19:12;;;;;;;7.82;5.85;;;29.60;42.90;;;;;;5074847;28;20375;-45
2021/07/08 09:21:52;;;;;;;10.80;3.88;;;29.60;43.30;;;;;;5075495;28;20036;-45
2021/07/08 09:24:19;;;;;;;4.22;2.80;;;29.60;42.60;;;;;;5075331;28;20374;-44
2021/07/08 09:27:05;;;;;;;8.52;6.93;;;29.60;42.50;;;;;;5075765;28;20320;-42
2021/07/08 09:29:39;;;;;;;12.00;6.70;;;29.60;43.00;;;;;;5075166;28;20029;-44
2021/07/08 09:32:17;;;;;;;9.48;3.67;;;29.60;42.60;;;;;;5075281;28;20355;-44
2021/07/08 09:34:50;;;;;;;6.43;3.90;;;29.60;42.00;;;;;;5075196;28;20024;-43
2021/07/08 09:37:19;;;;;;;10.23;5.65;;;29.60;41.40;;;;;;5074864;28;20395;-42
2021/07/08 09:39:53;;;;;;;9.88;3.28;;;29.80;42.50;;;;;;5074534;28;20036;-43
2021/07/08 09:42:43;;;;;;;6.15;2.67;;;29.80;41.00;;;;;;5074854;28;20037;-46
2021/07/08 09:45:10;;;;;;;;;;;30.00;41.30;;;;;;5072674;28;20059;-45
2021/07/08 09:47:41;;;;;;;6.85;2.67;;;30.00;42.10;;;;;;5074592;28;19908;-42
2021/07/08 09:50:08;;;;;;;8.88;4.85;;;30.00;41.70;;;;;;5075281;28;20024;-45
2021/07/08 09:52:34;;;;;;;9.20;5.00;;;30.10;42.70;;;;;;5075035;28;20372;-44
2021/07/08 09:57:41;;;;;;;9.48;5.72;;;30.20;41.70;;;;;;5076361;28;20024;-43
2021/07/08 10:00:28;;;;;;;12.40;5.07;;;30.30;43.20;;;;;;5078849;28;20032;-43
2021/07/08 10:02:54;;;;;;;12.05;5.90;;;30.30;43.50;;;;;;5078581;28;20040;-51
2021/07/08 10:05:22;;;;;;;9.85;6.40;;;30.30;44.00;;;;;;5079574;28;20107;-48
2021/07/08 10:07:48;;;;;;;8.75;5.00;;;30.30;44.10;;;;;;5078519;28;20328;-49
2021/07/08 10:10:15;;;;;;;7.22;4.82;;;30.30;43.60;;;;;;5079328;28;20021;-45
2021/07/08 10:12:42;;;;;;;12.52;4.18;;;30.30;43.30;;;;;;5078985;28;20044;-45
2021/07/08 10:15:10;;;;;;;8.35;3.83;;;30.40;43.30;;;;;;5079382;28;20070;-44
2021/07/08 10:17:37;;;;;;;3.88;2.92;;;30.40;42.00;;;;;;5077849;28;20480;-43
2021/07/08 10:20:06;;;;;;;7.88;4.75;;;30.50;41.80;;;;;;5078843;28;20056;-47
2021/07/08 10:22:33;;;;;;;6.97;4.65;;;30.60;42.80;;;;;;5078602;28;20424;-49
2021/07/08 10:24:59;;;;;;;8.57;3.35;;;30.70;44.20;;;;;;5078619;28;20028;-47
2021/07/08 10:27:26;;;;;;;6.38;5.07;;;30.70;42.70;;;;;;5078254;28;20139;-46
2021/07/08 10:29:54;;;;;;;6.38;3.70;;;30.80;43.70;;;;;;5078653;28;20032;-45
2021/07/08 10:32:20;;;;;;;6.13;2.95;;;30.80;43.20;;;;;;5071398;28;20036;-48
2021/07/08 10:34:47;;;;;;;5.55;3.30;;;30.80;42.90;;;;;;5058438;28;20059;-46
2021/07/08 10:37:28;;;;;;;5.72;4.63;;;30.90;42.90;;;;;;5058246;28;20033;-49
2021/07/08 10:39:58;;;;;;;7.20;4.32;;;31.00;43.00;;;;;;5058235;28;20428;-44
2021/07/08 10:42:42;;;;;;;;;;;31.00;41.70;;;;;;5058762;28;20098;-46
2021/07/08 10:45:27;;;;;;;6.63;3.63;;;31.00;42.00;;;;;;5058917;28;19908;-47
2021/07/08 10:48:19;;;;;;;6.75;2.63;;;31.00;42.70;;;;;;5057903;28;20064;-45
2021/07/08 10:50:46;;;;;;;5.57;4.35;;;31.10;40.80;;;;;;5058788;28;20029;-45
2021/07/08 10:53:27;;;;;;;7.03;3.42;;;31.20;42.50;;;;;;5057850;28;20040;-44
2021/07/08 10:55:59;;;;;;;7.97;4.10;;;31.20;41.00;;;;;;5057956;28;20037;-49
2021/07/08 10:58:49;;;;;;;8.20;3.10;;;31.30;41.60;;;;;;5057739;28;20040;-48
2021/07/08 11:01:25;;;;;;;6.47;4.05;;;31.40;40.40;;;;;;5058459;28;20112;-49
2021/07/08 11:03:57;;;;;;;5.60;3.33;;;31.50;41.60;;;;;;5057954;28;20040;-47
2021/07/08 11:06:37;;;;;;;7.80;4.07;;;31.60;42.10;;;;;;5058311;28;20040;-45
2021/07/08 11:09:13;;;;;;;11.20;7.43;;;31.70;42.00;;;;;;5056741;28;20029;-49
2021/07/08 11:11:45;;;;;;;5.93;5.07;;;31.80;42.00;;;;;;5057822;28;20032;-46
2021/07/08 11:14:12;;;;;;;5.65;4.28;;;31.80;41.50;;;;;;5057548;28;20021;-46
2021/07/08 11:16:52;;;;;;;4.53;3.45;;;31.90;41.70;;;;;;5057896;28;20037;-48
2021/07/08 11:19:21;;;;;;;6.20;3.55;;;32.00;41.60;;;;;;5057657;28;20036;-46
2021/07/08 11:21:51;;;;;;;5.25;3.65;;;32.10;42.20;;;;;;5057643;28;20037;-46
2021/07/08 11:24:17;;;;;;;7.20;3.08;;;32.10;42.10;;;;;;5057656;28;20045;-45
2021/07/08 11:27:03;;;;;;;5.80;2.90;;;32.20;40.60;;;;;;5057732;28;20116;-47
2021/07/08 11:29:50;;;;;;;7.85;3.67;;;32.30;40.50;;;;;;5057833;28;20043;-46
2021/07/08 11:32:24;;;;;;;8.68;3.15;;;32.40;41.40;;;;;;5057195;28;20044;-46
2021/07/08 11:34:58;;;;;;;3.92;2.60;;;32.40;41.40;;;;;;5058004;28;20021;-46
2021/07/08 11:37:30;;;;;;;5.60;2.85;;;32.50;40.80;;;;;;5057433;28;20029;-46
2021/07/08 11:39:59;;;;;;;4.22;3.33;;;32.50;41.80;;;;;;5057248;28;20028;-47
2021/07/08 11:42:30;;;;;;;5.47;3.10;;;32.60;41.80;;;;;;5057057;28;20488;-46
2021/07/08 11:44:59;;;;;;;9.75;2.78;;;32.60;41.10;;;;;;5057500;28;20033;-46
2021/07/08 11:47:25;;;;;;;4.55;2.50;;;32.70;39.80;;;;;;5057139;28;20087;-47
2021/07/08 11:49:51;;;;;;;2.83;2.30;;;32.80;39.80;;;;;;5057304;28;20405;-46
2021/07/08 11:52:27;;;;;;;3.50;2.88;;;33.00;39.40;;;;;;5056799;28;20048;-46
2021/07/08 11:54:58;;;;;;;2.55;2.05;;;33.20;40.30;;;;;;5057573;28;20055;-46
2021/07/08 11:57:24;;;;;;;4.35;3.13;;;33.40;39.90;;;;;;5056407;28;20423;-48
2021/07/08 11:59:49;;;;;;;4.70;2.03;;;33.50;39.90;;;;;;5075873;28;20032;-45
2021/07/08 12:02:35;;;;;;;4.57;1.98;;;33.70;39.80;;;;;;5076433;28;20082;-45
2021/07/08 12:05:15;;;;;;;5.28;2.70;;;33.90;38.70;;;;;;5077254;28;20025;-46
2021/07/08 12:07:49;;;;;;;;;;;34.10;39.10;;;;;;5076935;28;20459;-46
2021/07/08 12:10:23;;;;;;;3.65;2.97;;;34.20;39.40;;;;;;5077159;28;19958;-45
2021/07/08 12:12:53;;;;;;;5.13;3.42;;;34.40;39.10;;;;;;5075971;28;20392;-45
2021/07/08 12:15:21;;;;;;;4.97;2.33;;;34.60;38.80;;;;;;5076457;28;20413;-45
2021/07/08 12:17:57;;;;;;;7.88;3.40;;;34.70;37.10;;;;;;5075623;28;20029;-46
2021/07/08 12:20:23;;;;;;;5.05;3.95;;;34.90;37.70;;;;;;5075240;28;20056;-46
2021/07/08 12:23:04;;;;;;;4.25;2.20;;;35.00;37.60;;;;;;5076155;28;20416;-44
2021/07/08 12:25:31;;;;;;;7.13;2.15;;;35.10;36.10;;;;;;5076364;28;20047;-43
2021/07/08 12:27:57;;;;;;;3.58;2.00;;;35.20;35.70;;;;;;5075660;28;20085;-44
2021/07/08 12:30:24;;;;;;;3.30;2.60;;;35.40;35.10;;;;;;5076758;28;20320;-44
2021/07/08 12:33:13;;;;;;;3.08;1.90;;;35.50;35.40;;;;;;5075654;28;20385;-44
2021/07/08 12:35:49;;;;;;;3.33;2.03;;;35.70;35.10;;;;;;5076541;28;20050;-50
2021/07/08 12:38:17;;;;;;;5.38;3.22;;;35.80;34.60;;;;;;5075476;28;20036;-46
2021/07/08 12:40:46;;;;;;;3.80;2.30;;;35.90;35.10;;;;;;5075626;28;20052;-44
2021/07/08 12:43:14;;;;;;;5.88;2.70;;;36.00;34.40;;;;;;5074440;28;20432;-46
2021/07/08 12:45:40;;;;;;;3.30;2.45;;;36.20;34.40;;;;;;5074725;28;20037;-42
2021/07/08 12:48:11;;;;;;;4.50;2.97;;;36.30;34.70;;;;;;5073985;28;20024;-46
2021/07/08 12:50:44;;;;;;;8.32;2.55;;;36.50;34.60;;;;;;5074599;28;20078;-45
2021/07/08 12:53:15;;;;;;;6.43;3.17;;;36.60;33.40;;;;;;5074127;28;20028;-43
2021/07/08 12:55:49;;;;;;;3.15;2.70;;;36.70;34.20;;;;;;5074511;28;20100;-47
2021/07/08 12:58:24;;;;;;;7.13;3.17;;;36.80;34.60;;;;;;5073737;28;20028;-44